createdAt,value
2022-12-18T00:01:07.280Z,102326.44
2022-12-18T00:03:34.747Z,102348.50
2022-12-18T00:06:01.652Z,102351.81
2022-12-18T00:08:28.298Z,102347.66
2022-12-18T00:10:55.251Z,102339.88
2022-12-18T00:13:26.477Z,102349.16
2022-12-18T00:15:54.435Z,102343.19
2022-12-18T00:18:23.200Z,102332.91
2022-12-18T00:20:49.686Z,102348.28
2022-12-18T00:23:16.206Z,102352.56
2022-12-18T00:25:42.628Z,102346.72
2022-12-18T00:28:09.109Z,102353.53
2022-12-18T00:30:35.587Z,102337.22
2022-12-18T00:33:02.085Z,102350.03
2022-12-18T00:35:28.635Z,102358.47
2022-12-18T00:37:55.064Z,102350.91
2022-12-18T00:40:21.778Z,102350.13
2022-12-18T00:42:57.325Z,102347.50
2022-12-18T00:45:33.730Z,102341.47
2022-12-18T00:48:00.286Z,102335.59
2022-12-18T00:50:27.127Z,102325.31
2022-12-18T00:52:53.599Z,102329.53
2022-12-18T00:55:20.046Z,102318.47
2022-12-18T00:57:46.494Z,102332.97
2022-12-18T01:00:15.611Z,102341.47
2022-12-18T01:02:42.873Z,102340.69
2022-12-18T01:05:12.158Z,102333.00
2022-12-18T01:07:39.042Z,102322.78
2022-12-18T01:10:06.613Z,102321.94
2022-12-18T01:12:33.196Z,102327.88
2022-12-18T01:14:59.679Z,102333.69
2022-12-18T01:17:26.137Z,102328.63
2022-12-18T01:19:52.570Z,102331.06
2022-12-18T01:22:19.114Z,102323.41
2022-12-18T01:24:45.865Z,102314.03
2022-12-18T01:27:12.323Z,102324.25
2022-12-18T01:29:38.797Z,102311.56
2022-12-18T01:32:05.523Z,102320.06
2022-12-18T01:34:32.052Z,102310.81
2022-12-18T01:36:58.546Z,102316.69
2022-12-18T01:39:25.197Z,102323.50
2022-12-18T01:42:03.855Z,102320.06
2022-12-18T01:44:49.324Z,102319.22
2022-12-18T01:47:24.733Z,102331.97
2022-12-18T01:49:51.598Z,102329.31
2022-12-18T01:52:18.895Z,102337.78
2022-12-18T01:54:47.447Z,102332.66
2022-12-18T01:57:14.468Z,102323.38
2022-12-18T01:59:43.752Z,102316.53
2022-12-18T02:02:10.277Z,102322.47
2022-12-18T02:04:36.860Z,102333.56
2022-12-18T02:07:30.756Z,102328.47
2022-12-18T02:10:11.636Z,102325.84
2022-12-18T02:12:44.498Z,102306.28
2022-12-18T02:15:30.249Z,102310.56
2022-12-18T02:18:04.192Z,102339.41
2022-12-18T02:20:53.605Z,102330.91
2022-12-18T02:23:35.416Z,102329.19
2022-12-18T02:26:41.603Z,102324.09
2022-12-18T02:29:14.340Z,102307.97
2022-12-18T02:31:49.915Z,102319.84
2022-12-18T02:34:18.720Z,102321.56
2022-12-18T02:36:47.771Z,102322.41
2022-12-18T02:39:16.600Z,102313.13
2022-12-18T02:41:43.198Z,102311.47
2022-12-18T02:44:12.580Z,102330.16
2022-12-18T02:46:45.780Z,102332.69
2022-12-18T02:49:20.932Z,102319.16
2022-12-18T02:51:56.556Z,102327.72
2022-12-18T02:54:31.788Z,102322.63
2022-12-18T02:57:10.577Z,102312.44
2022-12-18T03:00:06.932Z,102318.28
2022-12-18T03:02:37.540Z,102318.38
2022-12-18T03:05:56.564Z,102322.59
2022-12-18T03:08:29.912Z,102321.75
2022-12-18T03:11:04.276Z,102320.03
2022-12-18T03:13:37.157Z,102315.00
2022-12-18T03:16:07.225Z,102315.03
2022-12-18T03:18:43.541Z,102307.44
2022-12-18T03:21:12.416Z,102315.97
2022-12-18T03:23:48.401Z,102310.88
2022-12-18T03:26:18.806Z,102298.19
2022-12-18T03:28:51.073Z,102289.59
2022-12-18T03:31:19.505Z,102307.38
2022-12-18T03:33:58.754Z,102311.59
2022-12-18T03:36:25.697Z,102311.56
2022-12-18T03:38:52.284Z,102311.56
2022-12-18T03:41:34.643Z,102303.94
2022-12-18T03:44:32.389Z,102304.72
2022-12-18T03:47:16.206Z,102297.09
2022-12-18T03:49:57.471Z,102297.16
2022-12-18T03:52:43.566Z,102286.16
2022-12-18T03:55:11.895Z,102291.22
2022-12-18T03:57:39.769Z,102293.00
2022-12-18T04:00:12.204Z,102289.50
2022-12-18T04:02:44.083Z,102292.09
2022-12-18T04:05:12.074Z,102285.28
2022-12-18T04:07:39.912Z,102289.38
2022-12-18T04:10:08.012Z,102275.81
2022-12-18T04:12:34.500Z,102275.94
2022-12-18T04:15:00.993Z,102272.63
2022-12-18T04:17:27.500Z,102275.94
2022-12-18T04:19:53.964Z,102275.97
2022-12-18T04:22:20.405Z,102281.03
2022-12-18T04:24:46.981Z,102277.59
2022-12-18T04:27:13.563Z,102276.72
2022-12-18T04:29:40.030Z,102281.81
2022-12-18T04:32:06.751Z,102282.63
2022-12-18T04:34:33.183Z,102284.44
2022-12-18T04:36:59.695Z,102285.28
2022-12-18T04:39:26.188Z,102291.19
2022-12-18T04:41:53.038Z,102274.25
2022-12-18T04:44:19.481Z,102278.53
2022-12-18T04:46:45.988Z,102278.47
2022-12-18T04:49:12.596Z,102266.47
2022-12-18T04:51:39.558Z,102268.13
2022-12-18T04:54:06.028Z,102271.50
2022-12-18T04:56:33.059Z,102257.13
2022-12-18T04:58:59.505Z,102256.97
2022-12-18T05:01:30.989Z,102270.56
2022-12-18T05:04:01.021Z,102245.88
2022-12-18T05:06:27.501Z,102247.53
2022-12-18T05:08:53.908Z,102252.63
2022-12-18T05:11:20.410Z,102250.06
2022-12-18T05:13:47.074Z,102258.53
2022-12-18T05:16:14.631Z,102257.66
2022-12-18T05:18:41.134Z,102264.53
2022-12-18T05:21:07.586Z,102256.94
2022-12-18T05:23:37.798Z,102271.34
2022-12-18T05:26:07.029Z,102273.13
2022-12-18T05:28:35.321Z,102276.41
2022-12-18T05:31:04.023Z,102284.91
2022-12-18T05:33:32.896Z,102278.09
2022-12-18T05:36:01.732Z,102284.91
2022-12-18T05:38:29.971Z,102288.25
2022-12-18T05:40:57.036Z,102294.13
2022-12-18T05:43:24.648Z,102300.03
2022-12-18T05:45:51.876Z,102295.84
2022-12-18T05:48:18.672Z,102300.06
2022-12-18T05:50:46.819Z,102299.13
2022-12-18T05:53:15.442Z,102315.38
2022-12-18T05:55:43.653Z,102311.16
2022-12-18T05:58:12.642Z,102314.47
2022-12-18T06:00:41.761Z,102316.16
2022-12-18T06:03:10.600Z,102321.25
2022-12-18T06:05:39.412Z,102316.94
2022-12-18T06:08:06.056Z,102317.72
2022-12-18T06:10:32.564Z,102314.34
2022-12-18T06:12:59.192Z,102328.84
2022-12-18T06:15:25.655Z,102316.06
2022-12-18T06:17:52.395Z,102316.13
2022-12-18T06:20:19.718Z,102314.44
2022-12-18T06:22:46.152Z,102308.50
2022-12-18T06:25:12.796Z,102306.00
2022-12-18T06:27:39.575Z,102314.56
2022-12-18T06:30:06.725Z,102307.75
2022-12-18T06:32:33.257Z,102302.66
2022-12-18T06:34:59.675Z,102286.59
2022-12-18T06:37:27.058Z,102293.38
2022-12-18T06:39:54.629Z,102284.06
2022-12-18T06:42:21.051Z,102292.56
2022-12-18T06:44:47.504Z,102282.41
2022-12-18T06:47:13.957Z,102273.06
2022-12-18T06:49:40.423Z,102286.69
2022-12-18T06:52:06.883Z,102276.50
2022-12-18T06:54:33.333Z,102282.47
2022-12-18T06:56:59.812Z,102294.28
2022-12-18T06:59:26.218Z,102282.41
2022-12-18T07:01:53.737Z,102286.59
2022-12-18T07:04:20.320Z,102276.44
2022-12-18T07:06:46.720Z,102281.59
2022-12-18T07:09:13.187Z,102287.53
2022-12-18T07:11:39.679Z,102285.00
2022-12-18T07:14:06.377Z,102288.44
2022-12-18T07:16:32.915Z,102287.63
2022-12-18T07:19:00.556Z,102287.59
2022-12-18T07:21:27.022Z,102281.66
2022-12-18T07:23:53.579Z,102287.56
2022-12-18T07:26:21.409Z,102281.63
2022-12-18T07:28:48.546Z,102278.22
2022-12-18T07:31:18.333Z,102278.25
2022-12-18T07:33:46.402Z,102281.72
2022-12-18T07:36:13.881Z,102277.53
2022-12-18T07:38:40.933Z,102283.47
2022-12-18T07:41:10.933Z,102277.56
2022-12-18T07:43:38.672Z,102272.47
2022-12-18T07:46:05.956Z,102271.59
2022-12-18T07:48:32.714Z,102264.84
2022-12-18T07:51:05.185Z,102270.00
2022-12-18T07:53:32.536Z,102262.38
2022-12-18T07:56:26.671Z,102247.09
2022-12-18T07:58:52.672Z,102254.00
2022-12-18T08:01:19.272Z,102260.81
2022-12-18T08:03:47.895Z,102248.97
2022-12-18T08:06:15.038Z,102246.44
2022-12-18T08:08:43.126Z,102243.16
2022-12-18T08:11:09.721Z,102231.38
2022-12-18T08:13:36.439Z,102225.47
2022-12-18T08:16:08.189Z,102215.31
2022-12-18T08:18:36.797Z,102215.38
2022-12-18T08:21:22.090Z,102197.56
2022-12-18T08:23:50.020Z,102201.91
2022-12-18T08:26:17.950Z,102202.78
2022-12-18T08:28:45.485Z,102200.25
2022-12-18T08:31:12.045Z,102212.16
2022-12-18T08:33:40.225Z,102200.28
2022-12-18T08:36:09.103Z,102188.50
2022-12-18T08:38:35.631Z,102196.16
2022-12-18T08:41:07.162Z,102187.75
2022-12-18T08:43:52.741Z,102197.22
2022-12-18T08:46:20.872Z,102191.34
2022-12-18T08:48:48.105Z,102199.91
2022-12-18T08:51:17.335Z,102204.25
2022-12-18T08:53:45.494Z,102194.94
2022-12-18T08:56:12.800Z,102182.25
2022-12-18T08:58:39.939Z,102195.09
2022-12-18T09:01:12.098Z,102195.13
2022-12-18T09:03:39.169Z,102181.56
2022-12-18T09:06:06.887Z,102174.81
2022-12-18T09:08:33.490Z,102187.63
2022-12-18T09:11:00.037Z,102214.84
2022-12-18T09:13:26.585Z,102208.97
2022-12-18T09:15:54.675Z,102215.75
2022-12-18T09:18:22.792Z,102199.66
2022-12-18T09:20:51.170Z,102190.41
2022-12-18T09:23:17.672Z,102187.91
2022-12-18T09:25:44.174Z,102182.78
2022-12-18T09:28:15.688Z,102169.22
2022-12-18T09:30:45.244Z,102179.41
2022-12-18T09:33:12.010Z,102179.44
2022-12-18T09:35:41.546Z,102175.19
2022-12-18T09:38:12.366Z,102158.22
2022-12-18T09:40:49.732Z,102163.34
2022-12-18T09:43:40.625Z,102143.84
2022-12-18T09:46:12.560Z,102166.00
2022-12-18T09:48:45.484Z,102166.03
2022-12-18T09:51:37.171Z,102166.03
2022-12-18T09:54:08.407Z,102160.13
2022-12-18T09:56:41.113Z,102150.78
2022-12-18T09:59:24.054Z,102159.34
2022-12-18T10:01:50.777Z,102149.13
2022-12-18T10:04:17.449Z,102134.63
2022-12-18T10:06:53.758Z,102132.13
2022-12-18T10:09:25.048Z,102129.56
2022-12-18T10:12:00.838Z,102134.69
2022-12-18T10:14:27.280Z,102132.13
2022-12-18T10:17:18.731Z,102135.53
2022-12-18T10:19:54.100Z,102133.03
2022-12-18T10:22:29.997Z,102121.09
2022-12-18T10:25:17.956Z,102134.75
2022-12-18T10:27:44.871Z,102138.19
2022-12-18T10:30:20.130Z,102133.09
2022-12-18T10:32:46.696Z,102127.97
2022-12-18T10:35:20.643Z,102121.16
2022-12-18T10:38:06.143Z,102116.03
2022-12-18T10:40:33.955Z,102110.09
2022-12-18T10:43:12.806Z,102110.09
2022-12-18T10:45:39.297Z,102117.78
2022-12-18T10:48:18.537Z,102105.84
2022-12-18T10:51:10.412Z,102082.81
2022-12-18T10:53:38.499Z,102104.13
2022-12-18T10:56:07.494Z,102108.41
2022-12-18T10:58:36.522Z,102100.75
2022-12-18T11:01:10.525Z,102105.84
2022-12-18T11:04:02.452Z,102101.56
2022-12-18T11:06:30.091Z,102093.91
2022-12-18T11:09:19.586Z,102100.75
2022-12-18T11:12:01.527Z,102099.00
2022-12-18T11:14:46.766Z,102101.56
2022-12-18T11:17:35.819Z,102087.91
2022-12-18T11:20:05.310Z,102083.66
2022-12-18T11:22:34.427Z,102058.06
2022-12-18T11:25:32.689Z,102057.19
2022-12-18T11:27:57.041Z,102056.34
2022-12-18T11:30:35.958Z,102048.69
2022-12-18T11:33:22.802Z,102049.50
2022-12-18T11:36:03.684Z,102048.66
2022-12-18T11:38:35.535Z,102048.63
2022-12-18T11:41:05.058Z,102052.88
2022-12-18T11:43:50.861Z,102047.78
2022-12-18T11:46:35.304Z,102052.03
2022-12-18T11:49:12.770Z,102010.19
2022-12-18T11:51:49.794Z,102011.91
2022-12-18T11:54:17.368Z,102011.94
2022-12-18T11:57:22.141Z,102017.88
2022-12-18T12:00:00.538Z,102011.88
2022-12-18T12:02:49.698Z,102005.09
2022-12-18T12:05:29.776Z,102010.19
2022-12-18T12:08:14.988Z,102008.50
2022-12-18T12:10:50.796Z,101996.56
2022-12-18T12:13:38.913Z,102017.88
2022-12-18T12:16:08.496Z,101996.53
2022-12-18T12:18:50.259Z,102005.06
2022-12-18T12:21:23.661Z,102008.47
2022-12-18T12:24:22.238Z,101999.06
2022-12-18T12:27:41.349Z,101972.59
2022-12-18T12:30:16.929Z,101995.72
2022-12-18T12:32:52.459Z,101988.81
2022-12-18T12:35:43.661Z,101993.94
2022-12-18T12:38:16.944Z,101974.31
2022-12-18T12:40:58.755Z,101977.75
2022-12-18T12:43:58.263Z,101976.94
2022-12-18T12:46:27.383Z,101980.31
2022-12-18T12:48:59.478Z,101982.03
2022-12-18T12:51:36.550Z,101949.63
2022-12-18T12:54:07.517Z,101958.97
2022-12-18T12:56:51.815Z,101974.34
2022-12-18T12:59:21.325Z,101984.59
2022-12-18T13:02:06.043Z,101983.72
2022-12-18T13:04:50.990Z,101970.91
2022-12-18T13:07:33.494Z,101976.06
2022-12-18T13:10:17.843Z,101963.22
2022-12-18T13:12:58.580Z,101964.06
2022-12-18T13:15:40.048Z,101951.25
2022-12-18T13:18:09.565Z,101940.16
2022-12-18T13:20:37.178Z,101953.78
2022-12-18T13:23:25.633Z,101952.06
2022-12-18T13:26:08.486Z,101937.56
2022-12-18T13:28:41.136Z,101943.53
2022-12-18T13:31:07.663Z,101935.81
2022-12-18T13:34:16.441Z,101923.88
2022-12-18T13:36:30.087Z,101924.72
2022-12-18T13:39:27.699Z,101921.34
2022-12-18T13:42:05.497Z,101918.78
2022-12-18T13:44:41.527Z,101919.69
2022-12-18T13:47:32.285Z,101916.25
2022-12-18T13:49:59.468Z,101907.75
2022-12-18T13:52:36.167Z,101904.31
2022-12-18T13:55:07.835Z,101911.16
2022-12-18T13:57:39.322Z,101899.19
2022-12-18T14:00:25.371Z,101899.22
2022-12-18T14:02:52.835Z,101894.97
2022-12-18T14:05:31.123Z,101897.53
2022-12-18T14:08:02.852Z,101896.66
2022-12-18T14:10:49.086Z,101878.75
2022-12-18T14:13:32.251Z,101885.59
2022-12-18T14:16:04.096Z,101872.78
2022-12-18T14:18:49.092Z,101872.78
2022-12-18T14:21:30.464Z,101881.28
2022-12-18T14:24:07.685Z,101871.94
2022-12-18T14:26:34.448Z,101863.38
2022-12-18T14:29:18.888Z,101844.63
2022-12-18T14:31:46.094Z,101858.31
2022-12-18T14:34:18.590Z,101851.47
2022-12-18T14:36:53.930Z,101830.13
2022-12-18T14:39:20.407Z,101871.09
2022-12-18T14:41:50.142Z,101855.72
2022-12-18T14:44:16.702Z,101865.09
2022-12-18T14:46:45.534Z,101857.41
2022-12-18T14:49:34.259Z,101853.16
2022-12-18T14:52:03.279Z,101844.63
2022-12-18T14:54:31.342Z,101837.78
2022-12-18T14:57:03.397Z,101842.06
2022-12-18T14:59:31.339Z,101813.91
2022-12-18T15:02:25.408Z,101840.38
2022-12-18T15:05:13.549Z,101839.50
2022-12-18T15:07:45.450Z,101839.53
2022-12-18T15:10:15.747Z,101834.41
2022-12-18T15:12:48.169Z,101845.50
2022-12-18T15:15:44.411Z,101848.06
2022-12-18T15:18:13.855Z,101838.66
2022-12-18T15:20:52.565Z,101845.50
2022-12-18T15:23:23.316Z,101840.41
2022-12-18T15:25:57.620Z,101848.09
2022-12-18T15:28:40.905Z,101847.22
2022-12-18T15:31:14.594Z,101847.22
2022-12-18T15:33:46.954Z,101822.50
2022-12-18T15:36:19.326Z,101832.72
2022-12-18T15:38:57.308Z,101831.00
2022-12-18T15:41:35.251Z,101835.28
2022-12-18T15:44:04.390Z,101838.69
2022-12-18T15:46:31.949Z,101839.56
2022-12-18T15:49:02.158Z,101840.44
2022-12-18T15:51:33.288Z,101856.69
2022-12-18T15:54:02.034Z,101856.66
2022-12-18T15:56:47.216Z,101864.34
2022-12-18T15:59:17.079Z,101841.31
2022-12-18T16:01:47.031Z,101846.44
2022-12-18T16:04:15.743Z,101837.00
2022-12-18T16:07:12.671Z,101829.34
2022-12-18T16:09:29.018Z,101833.56
2022-12-18T16:11:55.484Z,101852.34
2022-12-18T16:14:30.671Z,101839.63
2022-12-18T16:17:02.742Z,101841.31
2022-12-18T16:19:30.434Z,101839.56
2022-12-18T16:21:58.609Z,101858.38
2022-12-18T16:24:27.730Z,101840.41
2022-12-18T16:26:55.336Z,101835.34
2022-12-18T16:29:25.731Z,101820.84
2022-12-18T16:31:53.132Z,101841.38
2022-12-18T16:34:35.924Z,101826.00
2022-12-18T16:37:06.438Z,101834.50
2022-12-18T16:39:35.267Z,101827.69
2022-12-18T16:42:08.181Z,101838.78
2022-12-18T16:44:35.218Z,101824.31
2022-12-18T16:47:03.258Z,101826.84
2022-12-18T16:49:30.465Z,101823.41
2022-12-18T16:51:57.177Z,101814.94
2022-12-18T16:54:23.814Z,101823.41
2022-12-18T16:56:51.784Z,101810.63
2022-12-18T16:59:18.763Z,101828.56
2022-12-18T17:01:45.384Z,101824.31
2022-12-18T17:04:12.010Z,101809.81
2022-12-18T17:06:44.607Z,101816.59
2022-12-18T17:09:14.971Z,101815.78
2022-12-18T17:11:41.965Z,101803.00
2022-12-18T17:14:11.253Z,101797.88
2022-12-18T17:16:37.963Z,101799.59
2022-12-18T17:19:08.789Z,101803.00
2022-12-18T17:21:38.822Z,101813.22
2022-12-18T17:24:07.103Z,101807.28
2022-12-18T17:26:33.769Z,101803.06
2022-12-18T17:29:00.337Z,101793.66
2022-12-18T17:31:30.039Z,101809.91
2022-12-18T17:33:57.613Z,101801.38
2022-12-18T17:36:28.403Z,101815.03
2022-12-18T17:38:57.378Z,101807.31
2022-12-18T17:41:24.964Z,101821.81
2022-12-18T17:43:57.558Z,101817.56
2022-12-18T17:46:25.848Z,101809.06
2022-12-18T17:48:55.242Z,101802.25
2022-12-18T17:51:21.681Z,101808.22
2022-12-18T17:53:48.644Z,101809.13
2022-12-18T17:56:17.148Z,101812.50
2022-12-18T17:58:44.225Z,101826.19
2022-12-18T18:01:23.371Z,101815.94
2022-12-18T18:03:53.499Z,101808.22
2022-12-18T18:06:20.965Z,101821.91
2022-12-18T18:08:48.178Z,101837.22
2022-12-18T18:11:36.443Z,101828.69
2022-12-18T18:14:06.192Z,101827.84
2022-12-18T18:16:47.563Z,101832.97
2022-12-18T18:19:20.674Z,101830.41
2022-12-18T18:21:49.117Z,101817.59
2022-12-18T18:24:18.748Z,101807.38
2022-12-18T18:26:49.205Z,101837.22
2022-12-18T18:29:27.061Z,101819.28
2022-12-18T18:31:55.458Z,101836.34
2022-12-18T18:34:24.705Z,101829.50
2022-12-18T18:36:51.876Z,101818.44
2022-12-18T18:39:19.005Z,101826.97
2022-12-18T18:41:48.455Z,101827.00
2022-12-18T18:44:16.447Z,101815.03
2022-12-18T18:46:43.131Z,101824.41
2022-12-18T18:49:09.777Z,101815.88
2022-12-18T18:51:36.370Z,101817.56
2022-12-18T18:54:04.484Z,101817.56
2022-12-18T18:59:18.298Z,101820.97
2022-12-18T19:01:45.120Z,101815.00
2022-12-18T19:04:12.472Z,101807.34
2022-12-18T19:06:39.717Z,101819.28
2022-12-18T19:09:07.333Z,101814.16
2022-12-18T19:11:52.661Z,101820.97
2022-12-18T19:14:20.240Z,101817.56
2022-12-18T19:16:46.762Z,101812.44
2022-12-18T19:19:13.791Z,101818.41
2022-12-18T19:21:40.778Z,101816.69
2022-12-18T19:24:07.651Z,101818.41
2022-12-18T19:26:35.872Z,101812.41
2022-12-18T19:29:07.753Z,101826.94
2022-12-18T19:31:36.403Z,101791.94
2022-12-18T19:34:05.173Z,101803.88
2022-12-18T19:36:32.926Z,101803.88
2022-12-18T19:39:01.511Z,101780.88
2022-12-18T19:41:31.147Z,101817.53
2022-12-18T19:43:59.845Z,101806.41
2022-12-18T19:46:26.675Z,101801.31
2022-12-18T19:48:53.664Z,101803.03
2022-12-18T19:51:23.445Z,101812.41
2022-12-18T19:53:56.406Z,101829.44
2022-12-18T19:56:27.657Z,101819.16
2022-12-18T19:58:55.124Z,101815.75
2022-12-18T20:01:24.190Z,101823.41
2022-12-18T20:03:54.518Z,101811.41
2022-12-18T20:06:25.600Z,101820.81
2022-12-18T20:08:52.352Z,101832.75
2022-12-18T20:11:20.658Z,101825.03
2022-12-18T20:13:47.299Z,101835.25
2022-12-18T20:16:14.569Z,101827.56
2022-12-18T20:18:41.129Z,101822.44
2022-12-18T20:21:13.624Z,101810.50
2022-12-18T20:23:40.834Z,101813.84
2022-12-18T20:26:08.696Z,101804.44
2022-12-18T20:28:35.807Z,101817.25
2022-12-18T20:31:05.192Z,101810.44
2022-12-18T20:33:32.058Z,101805.31
2022-12-18T20:36:05.495Z,101814.69
2022-12-18T20:38:33.827Z,101809.53
2022-12-18T20:41:02.411Z,101820.59
2022-12-18T20:43:30.017Z,101825.72
2022-12-18T20:46:04.839Z,101830.84
2022-12-18T20:48:31.848Z,101835.09
2022-12-18T20:51:00.081Z,101833.41
2022-12-18T20:53:29.200Z,101827.38
2022-12-18T20:55:55.729Z,101824.00
2022-12-18T20:58:22.194Z,101831.66
2022-12-18T21:00:49.037Z,101821.41
2022-12-18T21:03:15.881Z,101826.56
2022-12-18T21:05:42.468Z,101831.69
2022-12-18T21:08:09.978Z,101829.94
2022-12-18T21:10:39.331Z,101814.53
2022-12-18T21:13:07.299Z,101819.69
2022-12-18T21:15:35.953Z,101825.66
2022-12-18T21:18:02.448Z,101817.09
2022-12-18T21:20:29.108Z,101809.47
2022-12-18T21:22:57.304Z,101813.72
2022-12-18T21:25:29.832Z,101811.16
2022-12-18T21:27:56.335Z,101814.59
2022-12-18T21:30:22.890Z,101810.31
2022-12-18T21:32:49.493Z,101818.84
2022-12-18T21:35:15.950Z,101806.94
2022-12-18T21:37:43.788Z,101815.38
2022-12-18T21:40:10.927Z,101797.47
2022-12-18T21:42:56.064Z,101817.97
2022-12-18T21:45:22.619Z,101809.41
2022-12-18T21:47:49.084Z,101808.50
2022-12-18T21:50:15.685Z,101794.84
2022-12-18T21:52:42.182Z,101795.66
2022-12-18T21:55:10.098Z,101794.84
2022-12-18T21:57:38.132Z,101785.44
2022-12-18T22:00:06.531Z,101780.34
2022-12-18T22:02:33.167Z,101793.16
2022-12-18T22:04:59.850Z,101771.78
2022-12-18T22:07:28.926Z,101764.97
2022-12-18T22:09:55.395Z,101758.97
2022-12-18T22:12:35.503Z,101752.97
2022-12-18T22:15:04.452Z,101752.06
2022-12-18T22:17:31.080Z,101747.00
2022-12-18T22:19:57.705Z,101754.63
2022-12-18T22:22:24.460Z,101752.03
2022-12-18T22:24:51.029Z,101758.94
2022-12-18T22:27:17.495Z,101735.03
2022-12-18T22:30:02.615Z,101750.38
2022-12-18T22:32:30.626Z,101746.06
2022-12-18T22:35:08.055Z,101724.78
2022-12-18T22:37:35.837Z,101724.72
2022-12-18T22:40:04.930Z,101712.78
2022-12-18T22:42:32.561Z,101708.47
2022-12-18T22:45:00.320Z,101716.97
2022-12-18T22:47:30.043Z,101697.28
2022-12-18T22:49:57.475Z,101705.81
2022-12-18T22:52:25.005Z,101698.97
2022-12-18T22:54:53.251Z,101703.22
2022-12-18T22:57:20.359Z,101696.41
2022-12-18T22:59:46.859Z,101694.69
2022-12-18T23:02:13.469Z,101686.97
2022-12-18T23:04:40.038Z,101686.97
2022-12-18T23:07:07.607Z,101692.06
2022-12-18T23:09:34.612Z,101674.13
2022-12-18T23:12:01.311Z,101686.94
2022-12-18T23:14:29.065Z,101686.06
2022-12-18T23:16:55.677Z,101677.50
2022-12-18T23:19:23.523Z,101691.94
2022-12-18T23:21:51.200Z,101685.94
2022-12-18T23:24:17.917Z,101681.63
2022-12-18T23:26:44.386Z,101682.47
2022-12-18T23:29:10.823Z,101664.50
2022-12-18T23:31:39.597Z,101665.31
2022-12-18T23:34:07.036Z,101655.94
2022-12-18T23:36:45.334Z,101653.31
2022-12-18T23:39:29.017Z,101651.63
2022-12-18T23:41:57.639Z,101649.88
2022-12-18T23:44:24.116Z,101631.94
2022-12-18T23:46:50.669Z,101630.22
2022-12-18T23:49:17.157Z,101628.50
2022-12-18T23:51:43.670Z,101613.91
2022-12-18T23:54:10.380Z,101604.47
2022-12-18T23:56:36.856Z,101611.22
2022-12-18T23:59:03.391Z,101623.22
